»·PEaware :: N1127M KSNA-KSMO

N1127M :: KSNA-KSMO

FLIGHT INFORMATION

Flight Status: Arrived
Operator: Privately registered:
United States
More flights under this callsign
Pilot: Marcelo S. (23897)
Aircraft: CIRRUS SR-22
(SR22)
More flights by this aircraft type
Origin: KSNA John Wayne-Orange Co
United States
Destination: KSMO Santa Monica Mun
United States
More flights between these airports :: More routes between these airports
Route: SLI V8 POXKU V363 BAYJY V186 DARTS
File this flight plan on PilotEdge
Remarks: CSTP9
Altitude:
(Current/Filed)
6,000ft
Speed:
(Current/Filed)
160kts
Departed: 15-Apr-19 04:20 PM
Arrived: 15-Apr-19 05:18 PM
Distance/Time
Traveled:
36nm/0:58
Distance/Time
To Go:
Arrived

Flight Plot

Page will automatically refresh every two minutes.


Map Options




Map Legend


Flown Route
Filed Route
Departure Airport
Arrival Airport
Navaid (VOR, NDB)
Fix

Horizontal Profiles

Position Reports

Time Latitude Longitude Heading Altitude Ground
Speed
15-Apr-19 16:07 33.675731 -117.871595 22 60ft 0kts
15-Apr-19 16:08 33.675731 -117.871595 22 60ft 0kts
15-Apr-19 16:09 33.675731 -117.871595 22 60ft 0kts
15-Apr-19 16:10 33.675731 -117.871595 22 60ft 0kts
15-Apr-19 16:11 33.675731 -117.871595 22 60ft 0kts
15-Apr-19 16:12 33.675731 -117.871595 22 60ft 0kts
15-Apr-19 16:13 33.675731 -117.871595 22 60ft 0kts
15-Apr-19 16:14 33.675731 -117.871595 22 60ft 0kts
15-Apr-19 16:15 33.675731 -117.871595 22 60ft 0kts
15-Apr-19 16:16 33.675731 -117.871595 22 60ft 0kts
15-Apr-19 16:17 33.675967 -117.871224 32 60ft 0kts
15-Apr-19 16:18 33.675967 -117.871224 32 60ft 0kts
15-Apr-19 16:19 33.678969 -117.868525 26 60ft 49kts
15-Apr-19 16:20 33.680907 -117.866604 115 60ft 0kts
15-Apr-19 16:21 33.679846 -117.866136 207 60ft 34kts
15-Apr-19 16:22 33.659094 -117.883564 233 1059ft 104kts
15-Apr-19 16:23 33.642170 -117.910603 230 2626ft 101kts
15-Apr-19 16:24 33.623045 -117.936143 236 4108ft 103kts
15-Apr-19 16:25 33.638921 -117.960527 330 5425ft 122kts
15-Apr-19 16:26 33.673116 -117.981880 320 6023ft 163kts
15-Apr-19 16:27 33.714479 -118.012402 329 5999ft 179kts
15-Apr-19 16:28 33.759324 -118.038930 343 5988ft 182kts
15-Apr-19 16:29 33.796298 -118.004201 73 5996ft 195kts
15-Apr-19 16:30 33.812529 -117.941846 71 5980ft 195kts
15-Apr-19 16:31 33.828641 -117.879579 72 5979ft 195kts
15-Apr-19 16:32 33.844820 -117.817012 72 5962ft 196kts
15-Apr-19 16:33 33.884250 -117.783071 353 5966ft 185kts
15-Apr-19 16:34 33.936231 -117.784146 354 5957ft 187kts
15-Apr-19 16:35 33.988192 -117.785280 352 5947ft 185kts
15-Apr-19 16:36 34.020127 -117.824751 288 6007ft 173kts
15-Apr-19 16:37 34.036404 -117.879569 289 5993ft 173kts
15-Apr-19 16:38 34.053092 -117.933686 288 6020ft 171kts
15-Apr-19 16:39 34.069661 -117.987834 289 6016ft 171kts
15-Apr-19 16:41 34.086251 -118.041514 289 6005ft 171kts
15-Apr-19 16:42 34.102829 -118.095526 289 6001ft 171kts
15-Apr-19 16:43 34.119338 -118.149567 289 5997ft 172kts
15-Apr-19 16:44 34.136558 -118.205873 289 5083ft 180kts
15-Apr-19 16:45 34.152497 -118.261993 273 4302ft 166kts
15-Apr-19 16:46 34.130030 -118.308838 233 3727ft 167kts
15-Apr-19 16:47 34.101302 -118.349911 225 2949ft 145kts
15-Apr-19 16:48 34.072796 -118.383322 229 1517ft 120kts
15-Apr-19 16:49 34.051216 -118.409729 226 1357ft 110kts
15-Apr-19 16:50 34.027036 -118.438150 225 489ft 117kts
15-Apr-19 16:51 34.005077 -118.468130 251 1369ft 122kts
15-Apr-19 16:52 33.994891 -118.506577 249 2789ft 112kts
15-Apr-19 16:53 33.985568 -118.542515 251 4166ft 119kts
15-Apr-19 16:54 33.975030 -118.584064 254 4987ft 149kts
15-Apr-19 16:55 33.990084 -118.635594 292 4995ft 173kts
15-Apr-19 16:56 34.010223 -118.688732 292 4989ft 175kts
15-Apr-19 16:57 34.030441 -118.742110 291 4994ft 174kts
15-Apr-19 16:58 34.061127 -118.783492 350 5010ft 186kts
15-Apr-19 16:58 34.103630 -118.793541 339 4999ft 186kts
15-Apr-19 17:00 34.140861 -118.765645 122 4997ft 184kts
15-Apr-19 17:01 34.099569 -118.765522 206 4989ft 163kts
15-Apr-19 17:01 34.063882 -118.775867 163 5000ft 166kts
15-Apr-19 17:02 34.027397 -118.745742 92 4999ft 178kts
15-Apr-19 17:04 34.055134 -118.678608 60 4417ft 153kts
15-Apr-19 17:04 34.074892 -118.639106 59 5102ft 154kts
15-Apr-19 17:05 34.101278 -118.585677 61 4851ft 187kts
15-Apr-19 17:06 34.125776 -118.531350 62 4992ft 185kts
15-Apr-19 17:07 34.150612 -118.475772 61 4995ft 192kts
15-Apr-19 17:08 34.175634 -118.416736 62 4503ft 204kts
15-Apr-19 17:09 34.200241 -118.356403 62 4041ft 191kts
15-Apr-19 17:10 34.214891 -118.301307 123 3966ft 166kts
15-Apr-19 17:11 34.174122 -118.295861 194 3982ft 153kts
15-Apr-19 17:12 34.132526 -118.306675 210 3969ft 152kts
15-Apr-19 17:13 34.100243 -118.343807 224 3265ft 165kts
15-Apr-19 17:14 34.075103 -118.380024 225 2540ft 128kts
15-Apr-19 17:15 34.049786 -118.410229 232 1862ft 138kts
15-Apr-19 17:16 34.024294 -118.441372 224 336ft 94kts
15-Apr-19 17:17 34.013764 -118.453743 250 179ft 13kts
15-Apr-19 17:18 34.014292 -118.454586 34 179ft 0kts

Navigation Log

Ident Type
Flight plan parsing failed, navigation log unavailable